Time;durP1;ratioP1;P1;durP2;ratioP2;P2;SDS_P1;SDS_P2;PMS_P1;PMS_P2;Temp;Humidity;BMP_temperature;BMP_pressure;BME280_temperature;BME280_humidity;BME280_pressure;Samples;Min_cycle;Max_cycle;Signal;HPM_P1;HPM_P2
2022/08/14 00:00:42;;;;;;;5.70;5.20;;;22.50;65.70;;;;;;5093909;28;20051;-77
2022/08/14 00:03:17;;;;;;;8.65;4.93;;;22.50;65.60;;;;;;5077135;28;20075;-78
2022/08/14 00:05:43;;;;;;;6.00;5.45;;;22.50;66.10;;;;;;5077104;28;20072;-76
2022/08/14 00:08:09;;;;;;;7.78;5.40;;;22.50;66.10;;;;;;5093821;28;20079;-77
2022/08/14 00:10:34;;;;;;;7.43;5.45;;;22.40;66.10;;;;;;5076898;28;20487;-77
2022/08/14 00:13:00;;;;;;;6.82;5.53;;;22.40;65.90;;;;;;5094024;28;20124;-77
2022/08/14 00:15:30;;;;;;;8.73;6.30;;;22.40;66.10;;;;;;5093753;28;20545;-76
2022/08/14 00:17:56;;;;;;;8.70;6.10;;;22.50;66.20;;;;;;5093672;28;20057;-76
2022/08/14 00:20:25;;;;;;;5.93;5.32;;;22.50;66.00;;;;;;5093122;28;20055;-76
2022/08/14 00:22:51;;;;;;;6.68;5.95;;;22.40;66.20;;;;;;5093019;28;20520;-77
2022/08/14 00:25:16;;;;;;;6.75;5.93;;;22.40;66.20;;;;;;5093710;28;20036;-76
2022/08/14 00:27:42;;;;;;;7.88;6.00;;;22.40;66.40;;;;;;5076387;28;20051;-76
2022/08/14 00:30:10;;;;;;;8.55;5.28;;;22.40;66.50;;;;;;5093338;28;20045;-76
2022/08/14 00:32:36;;;;;;;8.25;5.70;;;22.30;66.40;;;;;;5093392;28;20047;-78
2022/08/14 00:35:04;;;;;;;8.43;6.32;;;22.20;66.50;;;;;;5076450;28;20123;-76
2022/08/14 00:37:31;;;;;;;6.93;5.63;;;22.30;66.50;;;;;;5093570;28;20052;-76
2022/08/14 00:39:57;;;;;;;8.38;6.28;;;22.20;66.80;;;;;;5076251;28;20032;-76
2022/08/14 00:42:23;;;;;;;8.32;6.32;;;22.20;67.00;;;;;;5093187;28;20476;-76
2022/08/14 00:44:49;;;;;;;9.15;6.30;;;22.20;67.00;;;;;;5093021;28;20094;-76
2022/08/14 00:47:16;;;;;;;6.70;5.97;;;22.10;67.30;;;;;;5076196;28;20043;-77
2022/08/14 00:49:43;;;;;;;8.18;6.30;;;22.10;67.40;;;;;;5076653;28;20044;-76
2022/08/14 00:52:12;;;;;;;7.18;5.95;;;22.00;67.70;;;;;;5076351;28;20072;-77
2022/08/14 00:54:38;;;;;;;7.50;6.75;;;22.00;67.60;;;;;;5093026;28;20047;-77
2022/08/14 00:57:04;;;;;;;7.20;6.50;;;21.90;67.90;;;;;;5092877;28;20089;-76
2022/08/14 00:59:30;;;;;;;7.90;7.10;;;21.90;68.00;;;;;;5093032;28;20048;-76
2022/08/14 01:01:58;;;;;;;9.00;6.38;;;21.90;68.20;;;;;;5092714;28;20047;-76
2022/08/14 01:04:25;;;;;;;8.52;6.90;;;21.80;68.40;;;;;;5092780;28;20051;-78
2022/08/14 01:06:52;;;;;;;7.35;6.60;;;21.70;68.60;;;;;;5092765;28;20051;-77
2022/08/14 01:09:21;;;;;;;10.60;7.30;;;21.60;68.80;;;;;;5092610;28;20131;-77
2022/08/14 01:11:49;;;;;;;8.00;6.85;;;21.60;69.00;;;;;;5075917;28;20036;-76
2022/08/14 01:14:16;;;;;;;8.05;6.82;;;21.50;69.00;;;;;;5092840;28;20374;-77
2022/08/14 01:16:42;;;;;;;8.63;7.32;;;21.50;69.10;;;;;;5092580;28;20044;-77
2022/08/14 01:21:52;;;;;;;8.38;7.45;;;21.40;69.50;;;;;;5092391;28;20108;-76
2022/08/14 01:24:20;;;;;;;9.93;8.07;;;21.40;69.60;;;;;;5092314;28;20127;-77
2022/08/14 01:26:46;;;;;;;9.85;8.18;;;21.20;69.90;;;;;;5092332;28;20060;-76
2022/08/14 01:29:12;;;;;;;9.07;7.30;;;21.20;70.10;;;;;;5075257;28;20043;-77
2022/08/14 01:31:42;;;;;;;9.88;8.57;;;21.20;70.10;;;;;;5092237;28;20036;-77
2022/08/14 01:34:09;;;;;;;10.35;8.63;;;21.10;70.30;;;;;;5075314;28;20079;-77
2022/08/14 01:36:36;;;;;;;9.13;8.18;;;21.10;70.40;;;;;;5092169;28;20085;-76
2022/08/14 01:39:22;;;;;;;9.70;8.65;;;21.00;70.60;;;;;;5092080;28;20127;-76
2022/08/14 01:41:55;;;;;;;9.55;8.48;;;21.00;71.30;;;;;;5091752;28;20051;-77
2022/08/14 01:44:23;;;;;;;9.88;8.88;;;20.90;71.00;;;;;;5092142;28;20054;-76
2022/08/14 01:46:53;;;;;;;9.15;8.23;;;20.90;71.20;;;;;;5092047;28;20543;-77
2022/08/14 01:49:19;;;;;;;9.85;8.88;;;20.90;71.20;;;;;;5092004;28;20122;-75
2022/08/14 01:51:47;;;;;;;11.90;9.52;;;20.90;71.20;;;;;;5075056;28;20081;-77
2022/08/14 01:54:22;;;;;;;10.35;9.32;;;20.90;71.20;;;;;;5091953;28;20050;-76
2022/08/14 01:56:55;;;;;;;10.88;9.38;;;20.90;71.40;;;;;;5091954;28;20491;-77
2022/08/14 01:59:33;;;;;;;10.90;9.10;;;20.90;71.50;;;;;;5091960;28;20036;-77
2022/08/14 02:02:13;;;;;;;11.50;9.25;;;20.90;71.50;;;;;;5091731;28;20127;-76
2022/08/14 02:04:39;;;;;;;10.43;9.35;;;20.90;71.60;;;;;;5092140;28;20089;-77
2022/08/14 02:07:08;;;;;;;11.88;9.82;;;20.80;71.70;;;;;;5075062;28;20074;-78
2022/08/14 02:09:37;;;;;;;9.88;8.98;;;20.80;71.90;;;;;;5091707;28;20123;-76
2022/08/14 02:12:05;;;;;;;9.77;8.80;;;20.70;72.10;;;;;;5091705;28;20048;-76
2022/08/14 02:14:31;;;;;;;11.75;8.93;;;20.70;72.10;;;;;;5091697;28;20119;-77
2022/08/14 02:16:58;;;;;;;9.68;8.63;;;20.70;72.30;;;;;;5091684;28;20480;-76
2022/08/14 02:19:27;;;;;;;9.55;8.55;;;20.70;72.50;;;;;;5074962;28;20046;-76
2022/08/14 02:21:56;;;;;;;11.27;10.27;;;20.60;72.60;;;;;;5091859;28;20102;-78
2022/08/14 02:24:23;;;;;;;9.88;8.88;;;20.60;72.90;;;;;;5074844;28;20047;-76
2022/08/14 02:26:50;;;;;;;10.48;9.45;;;20.50;73.00;;;;;;5091448;28;20052;-77
2022/08/14 02:29:22;;;;;;;9.25;8.30;;;20.50;72.80;;;;;;5091471;28;20058;-76
2022/08/14 02:31:52;;;;;;;10.82;9.40;;;20.50;73.00;;;;;;5091552;28;20511;-77
2022/08/14 02:34:27;;;;;;;10.90;9.90;;;20.50;72.90;;;;;;5091524;28;20503;-77
2022/08/14 02:36:58;;;;;;;10.93;9.65;;;20.50;73.40;;;;;;5074727;28;20032;-76
2022/08/14 02:39:26;;;;;;;8.90;8.15;;;20.40;73.40;;;;;;5091447;28;20044;-76
2022/08/14 02:41:51;;;;;;;10.75;9.70;;;20.40;73.40;;;;;;5091384;28;20044;-76
2022/08/14 02:44:20;;;;;;;11.23;9.88;;;20.40;73.10;;;;;;5092216;28;20089;-78
2022/08/14 02:46:46;;;;;;;11.10;9.90;;;20.40;73.60;;;;;;5095501;28;20054;-77
2022/08/14 02:49:12;;;;;;;11.45;9.77;;;20.40;73.80;;;;;;5095320;28;20048;-76
2022/08/14 02:51:37;;;;;;;10.65;9.75;;;20.40;74.10;;;;;;5095541;28;20090;-77
2022/08/14 02:54:08;;;;;;;11.35;10.25;;;20.30;74.10;;;;;;5078320;28;20434;-77
2022/08/14 02:56:37;;;;;;;12.23;10.50;;;20.30;74.30;;;;;;5095231;28;20525;-77
2022/08/14 02:59:05;;;;;;;11.00;9.90;;;20.20;74.10;;;;;;5062189;28;20055;-76
2022/08/14 03:01:32;;;;;;;11.52;9.63;;;20.20;74.40;;;;;;5095078;28;20492;-77
2022/08/14 03:03:58;;;;;;;15.85;11.00;;;20.20;74.60;;;;;;5095143;28;20052;-76
2022/08/14 03:06:24;;;;;;;12.43;11.32;;;20.20;74.50;;;;;;5095153;28;20035;-76
2022/08/14 03:08:52;;;;;;;11.50;10.40;;;20.20;74.40;;;;;;5095023;28;20048;-75
2022/08/14 03:11:20;;;;;;;12.35;10.82;;;20.10;74.60;;;;;;5094957;28;20071;-77
2022/08/14 03:13:50;;;;;;;13.07;11.65;;;20.10;74.60;;;;;;5078331;28;20040;-76
2022/08/14 03:16:22;;;;;;;12.63;10.77;;;20.10;74.80;;;;;;5094982;28;20075;-77
2022/08/14 03:18:52;;;;;;;12.65;11.45;;;20.10;74.80;;;;;;5095149;28;20511;-77
2022/08/14 03:21:20;;;;;;;12.48;11.25;;;20.10;75.20;;;;;;5094715;28;20507;-78
2022/08/14 03:23:48;;;;;;;11.48;10.35;;;20.10;75.00;;;;;;5094777;28;20047;-76
2022/08/14 03:26:19;;;;;;;12.45;11.02;;;20.10;74.90;;;;;;5094779;28;20060;-77
2022/08/14 03:28:50;;;;;;;13.35;11.98;;;20.00;75.00;;;;;;5094792;28;20044;-76
2022/08/14 03:31:20;;;;;;;12.77;11.48;;;20.10;75.20;;;;;;5094599;28;20533;-77
2022/08/14 03:33:47;;;;;;;12.73;11.48;;;20.00;75.40;;;;;;5077856;28;20128;-76
2022/08/14 03:36:15;;;;;;;12.70;11.50;;;20.00;75.40;;;;;;5094766;28;20039;-76
2022/08/14 03:38:45;;;;;;;13.45;11.98;;;20.00;75.30;;;;;;5094677;28;20098;-76
2022/08/14 03:41:29;;;;;;;12.48;11.38;;;20.00;75.40;;;;;;5094340;28;20055;-77
2022/08/14 03:43:57;;;;;;;13.18;11.57;;;20.00;75.90;;;;;;5094432;28;20039;-76
2022/08/14 03:46:28;;;;;;;13.45;12.15;;;20.00;75.50;;;;;;5094271;28;20123;-76
2022/08/14 03:48:55;;;;;;;13.20;11.80;;;20.00;75.60;;;;;;5094164;28;20074;-75
2022/08/14 03:51:27;;;;;;;12.48;11.25;;;20.00;75.50;;;;;;5094440;28;20032;-78
2022/08/14 03:53:58;;;;;;;12.30;11.20;;;19.90;75.50;;;;;;5094231;28;20126;-76
2022/08/14 03:56:25;;;;;;;14.43;11.50;;;19.90;75.80;;;;;;5094111;28;20124;-77
2022/08/14 03:58:56;;;;;;;13.43;11.60;;;19.90;75.90;;;;;;5094030;28;20052;-76
2022/08/14 04:01:24;;;;;;;12.15;11.05;;;19.90;75.70;;;;;;5093984;28;20051;-76
2022/08/14 04:03:51;;;;;;;13.30;12.10;;;19.90;75.80;;;;;;5077565;28;20508;-78
2022/08/14 04:06:21;;;;;;;11.73;10.68;;;19.80;75.90;;;;;;5094262;28;20082;-77
2022/08/14 04:08:49;;;;;;;12.63;11.43;;;19.90;76.20;;;;;;5093848;28;20083;-77
2022/08/14 04:11:15;;;;;;;12.90;11.65;;;19.80;76.20;;;;;;5093843;28;20438;-77
2022/08/14 04:13:42;;;;;;;13.00;11.73;;;19.80;76.20;;;;;;5093781;28;20040;-77
2022/08/14 04:16:10;;;;;;;12.15;10.90;;;19.80;76.30;;;;;;5093303;28;20036;-76
2022/08/14 04:18:42;;;;;;;11.77;10.43;;;19.80;76.40;;;;;;5093363;28;20122;-77
2022/08/14 04:21:09;;;;;;;13.77;12.00;;;19.80;76.60;;;;;;5093444;28;20059;-76
2022/08/14 04:23:35;;;;;;;14.25;12.73;;;19.80;76.40;;;;;;5093667;28;20123;-76
2022/08/14 04:26:05;;;;;;;14.63;12.05;;;19.80;76.50;;;;;;5093565;28;20471;-76
2022/08/14 04:28:31;;;;;;;12.75;11.38;;;19.70;76.70;;;;;;5093587;28;20436;-76
2022/08/14 04:30:57;;;;;;;13.48;12.07;;;19.70;76.70;;;;;;5076578;28;20042;-77
2022/08/14 04:33:23;;;;;;;13.95;12.55;;;19.70;77.00;;;;;;5093416;28;20036;-76
2022/08/14 04:35:51;;;;;;;14.27;12.75;;;19.70;76.60;;;;;;5076954;28;20119;-77
2022/08/14 04:43:48;;;;;;;16.15;12.13;;;19.60;77.10;;;;;;5079011;28;20587;-76
2022/08/14 04:46:16;;;;;;;14.68;13.27;;;19.50;77.00;;;;;;5093462;28;20126;-76
2022/08/14 04:48:42;;;;;;;15.57;12.65;;;19.60;77.10;;;;;;5092967;28;20036;-76
2022/08/14 04:51:13;;;;;;;14.30;12.82;;;19.60;77.30;;;;;;5076120;28;20059;-77
2022/08/14 04:53:42;;;;;;;13.02;11.68;;;19.50;77.40;;;;;;5093076;28;20484;-77
2022/08/14 04:56:13;;;;;;;13.90;12.70;;;19.50;77.30;;;;;;5092953;28;20039;-76
2022/08/14 04:58:41;;;;;;;17.58;14.10;;;19.60;77.50;;;;;;5093254;28;20044;-76
2022/08/14 05:01:09;;;;;;;14.05;12.50;;;19.60;77.50;;;;;;5092789;28;20109;-77
2022/08/14 05:03:36;;;;;;;14.90;13.35;;;19.60;77.60;;;;;;5093079;28;20040;-77
2022/08/14 05:06:04;;;;;;;14.63;13.13;;;19.60;77.70;;;;;;5076375;28;20047;-77
2022/08/14 05:08:31;;;;;;;15.05;13.10;;;19.60;77.70;;;;;;5075378;28;20051;-78
2022/08/14 05:10:59;;;;;;;14.82;13.43;;;19.70;77.90;;;;;;5092900;28;20054;-76
2022/08/14 05:13:27;;;;;;;14.10;12.52;;;19.70;77.80;;;;;;5092675;28;20106;-77
2022/08/14 05:15:54;;;;;;;14.45;12.93;;;19.80;77.70;;;;;;5092839;28;20079;-76
2022/08/14 05:18:25;;;;;;;14.75;13.32;;;19.80;77.70;;;;;;5075731;28;20047;-76
2022/08/14 05:20:53;;;;;;;12.10;10.90;;;19.80;77.80;;;;;;5075645;28;20047;-76
2022/08/14 05:23:21;;;;;;;13.65;12.32;;;19.90;77.80;;;;;;5075653;28;20477;-77
2022/08/14 05:25:50;;;;;;;12.73;11.43;;;19.90;77.40;;;;;;5092547;28;20381;-76
2022/08/14 05:28:18;;;;;;;12.70;11.35;;;20.00;78.00;;;;;;5092407;28;20087;-77
2022/08/14 05:30:47;;;;;;;14.27;12.43;;;20.00;78.00;;;;;;5092270;28;20036;-78
2022/08/14 05:33:15;;;;;;;14.35;13.05;;;20.00;78.00;;;;;;5092358;28;20428;-77
2022/08/14 05:35:43;;;;;;;13.68;12.48;;;20.10;77.70;;;;;;5092309;28;20070;-77
2022/08/14 05:38:15;;;;;;;13.65;12.25;;;20.10;77.60;;;;;;5092271;28;20075;-76
2022/08/14 05:40:45;;;;;;;14.43;13.13;;;20.20;77.80;;;;;;5092102;28;20126;-76
2022/08/14 05:43:12;;;;;;;14.93;13.00;;;20.30;77.50;;;;;;5058797;28;20487;-76
2022/08/14 05:45:38;;;;;;;13.07;11.77;;;20.40;77.40;;;;;;5092129;28;20040;-77
2022/08/14 05:48:04;;;;;;;14.98;12.68;;;20.40;77.20;;;;;;5075313;28;20044;-77
2022/08/14 05:50:30;;;;;;;12.05;10.85;;;20.50;77.60;;;;;;5091987;28;20101;-74
2022/08/14 05:52:57;;;;;;;12.65;11.35;;;20.50;76.90;;;;;;5092262;28;20047;-75
2022/08/14 05:55:23;;;;;;;12.73;11.38;;;20.60;76.60;;;;;;5075100;28;20040;-75
2022/08/14 05:57:55;;;;;;;12.25;11.18;;;20.60;76.70;;;;;;5066401;28;20457;-75
2022/08/14 06:00:29;;;;;;;13.05;11.65;;;20.80;76.20;;;;;;5080332;28;20050;-74
2022/08/14 06:02:56;;;;;;;;;;;20.80;76.00;;;;;;5092626;28;20043;-76
2022/08/14 06:05:22;;;;;;;11.68;10.57;;;20.90;76.70;;;;;;5090356;28;19965;-75
2022/08/14 06:07:48;;;;;;;12.55;11.20;;;21.00;76.00;;;;;;5081703;28;20119;-74
2022/08/14 06:10:14;;;;;;;12.43;10.40;;;21.10;75.50;;;;;;5080170;28;20115;-76
2022/08/14 06:12:39;;;;;;;14.90;12.05;;;21.20;75.50;;;;;;5080346;28;20514;-75
2022/08/14 06:15:07;;;;;;;12.07;10.98;;;21.20;75.40;;;;;;5082480;28;20083;-75
2022/08/14 06:17:43;;;;;;;13.23;11.95;;;21.30;75.30;;;;;;5080277;28;20036;-77
2022/08/14 06:20:09;;;;;;;12.63;11.32;;;21.40;75.10;;;;;;5082764;28;20028;-76
2022/08/14 06:22:35;;;;;;;11.90;10.75;;;21.50;74.90;;;;;;5073325;28;20079;-76
2022/08/14 06:25:00;;;;;;;10.90;9.77;;;21.50;74.50;;;;;;5079095;28;20463;-76
2022/08/14 06:27:26;;;;;;;11.30;10.30;;;21.60;74.10;;;;;;5095643;28;20044;-74
2022/08/14 06:29:52;;;;;;;12.00;10.80;;;21.70;73.60;;;;;;5078802;28;20093;-76
2022/08/14 06:32:17;;;;;;;12.57;11.40;;;21.80;73.80;;;;;;5096054;28;20040;-76
2022/08/14 06:34:43;;;;;;;11.88;10.23;;;21.90;73.90;;;;;;5079176;28;20048;-76
2022/08/14 06:37:09;;;;;;;12.45;11.13;;;22.00;73.40;;;;;;5079001;28;20036;-75
2022/08/14 06:39:34;;;;;;;12.38;10.63;;;22.00;73.30;;;;;;5079283;28;20388;-75
2022/08/14 06:42:01;;;;;;;11.05;9.95;;;22.10;73.20;;;;;;5095487;28;20508;-75
2022/08/14 06:44:27;;;;;;;15.57;10.35;;;22.20;72.90;;;;;;5095579;28;20051;-75
2022/08/14 06:46:53;;;;;;;12.50;10.35;;;22.30;72.80;;;;;;5078551;28;20044;-75
2022/08/14 06:49:19;;;;;;;9.80;8.90;;;22.40;72.80;;;;;;5078561;28;20042;-76
2022/08/14 06:51:45;;;;;;;11.60;10.50;;;22.40;72.60;;;;;;5078416;28;20480;-75
2022/08/14 06:54:12;;;;;;;11.35;10.25;;;22.50;72.00;;;;;;5078692;28;20040;-76
2022/08/14 06:56:38;;;;;;;12.20;11.00;;;22.60;72.10;;;;;;5095315;28;20036;-75
2022/08/14 06:59:04;;;;;;;10.45;9.45;;;22.70;71.90;;;;;;5095517;28;20043;-76
2022/08/14 07:07:01;;;;;;;12.07;10.30;;;22.90;71.80;;;;;;5080781;28;19922;-76
2022/08/14 07:09:27;;;;;;;11.73;10.57;;;22.90;71.90;;;;;;5094997;28;20047;-75
2022/08/14 07:11:53;;;;;;;11.27;10.10;;;23.10;71.50;;;;;;5078111;28;20039;-76
2022/08/14 07:14:18;;;;;;;11.20;9.70;;;23.20;71.30;;;;;;5095228;28;20434;-74
2022/08/14 07:16:44;;;;;;;10.82;9.73;;;23.30;71.10;;;;;;5078384;28;20491;-75
2022/08/14 07:19:10;;;;;;;10.13;9.13;;;23.30;70.70;;;;;;5077890;28;20434;-76
2022/08/14 07:21:36;;;;;;;10.00;9.02;;;23.40;70.30;;;;;;5061293;28;20044;-75
2022/08/14 07:24:02;;;;;;;11.60;9.43;;;23.50;70.20;;;;;;5095070;28;20071;-76
2022/08/14 07:26:28;;;;;;;11.60;10.32;;;23.60;70.00;;;;;;5094753;28;20060;-75
2022/08/14 07:28:54;;;;;;;11.57;8.95;;;23.70;69.40;;;;;;5061072;28;20566;-76
2022/08/14 07:31:20;;;;;;;11.00;9.90;;;23.80;69.00;;;;;;5077539;28;20090;-75
2022/08/14 07:33:49;;;;;;;10.23;9.23;;;23.90;68.90;;;;;;5078051;28;20480;-76
2022/08/14 07:36:16;;;;;;;9.70;8.77;;;24.00;68.70;;;;;;5094542;28;20036;-75
2022/08/14 07:38:42;;;;;;;10.80;8.68;;;24.00;67.60;;;;;;5094542;28;20085;-75
2022/08/14 07:41:09;;;;;;;9.77;8.77;;;24.20;68.40;;;;;;5094393;28;20040;-77
2022/08/14 07:43:36;;;;;;;9.10;8.23;;;24.30;68.20;;;;;;5077662;28;20044;-76
2022/08/14 07:46:03;;;;;;;9.48;8.52;;;24.30;68.10;;;;;;5094333;28;20044;-75
2022/08/14 07:48:28;;;;;;;10.20;8.40;;;24.40;67.80;;;;;;5094484;28;20174;-77
2022/08/14 07:50:54;;;;;;;9.95;7.95;;;24.50;67.80;;;;;;5094241;28;20567;-77
2022/08/14 07:53:21;;;;;;;9.02;8.18;;;24.70;67.50;;;;;;5094247;28;20046;-77
2022/08/14 07:55:47;;;;;;;9.77;8.77;;;24.80;67.20;;;;;;5094152;28;20488;-76
2022/08/14 07:58:16;;;;;;;9.95;8.30;;;24.80;66.60;;;;;;5094180;28;20083;-76
2022/08/14 08:00:43;;;;;;;12.43;8.48;;;24.90;66.50;;;;;;5077332;28;20136;-75
2022/08/14 08:03:09;;;;;;;10.00;8.55;;;24.90;66.00;;;;;;5094034;28;20492;-76
2022/08/14 08:05:37;;;;;;;9.40;8.52;;;25.00;65.90;;;;;;5094070;28;20123;-78
2022/08/14 08:08:04;;;;;;;9.88;8.95;;;25.20;65.50;;;;;;5094136;28;20063;-75
2022/08/14 08:10:32;;;;;;;9.77;8.90;;;25.20;65.10;;;;;;5093841;28;20040;-75
2022/08/14 08:13:00;;;;;;;9.38;8.30;;;25.30;65.10;;;;;;5094081;28;20040;-77
2022/08/14 08:15:30;;;;;;;8.88;8.05;;;25.40;65.10;;;;;;5093896;28;20036;-76
2022/08/14 08:17:56;;;;;;;8.50;7.65;;;25.50;64.00;;;;;;5094025;28;20063;-76
2022/08/14 08:20:25;;;;;;;9.20;8.07;;;25.50;63.30;;;;;;5076862;28;20488;-76
2022/08/14 08:22:55;;;;;;;10.73;8.52;;;25.60;63.40;;;;;;5093597;28;20051;-74
2022/08/14 08:25:25;;;;;;;9.68;8.45;;;25.70;63.30;;;;;;5073652;28;21290;-75
2022/08/14 08:28:01;;;;;;;10.18;8.43;;;25.80;63.20;;;;;;5082997;28;20052;-76
2022/08/14 08:30:30;;;;;;;10.13;8.43;;;25.90;63.00;;;;;;5075927;28;20067;-77
2022/08/14 08:32:57;;;;;;;9.35;8.18;;;26.00;63.00;;;;;;5073214;28;20048;-75
2022/08/14 08:35:25;;;;;;;8.88;7.72;;;26.20;63.30;;;;;;5056543;28;20511;-76
2022/08/14 08:37:52;;;;;;;10.35;8.23;;;26.30;62.80;;;;;;5073128;28;20124;-74
2022/08/14 08:40:30;;;;;;;8.77;7.90;;;26.40;61.90;;;;;;5072959;28;20043;-76
2022/08/14 08:42:56;;;;;;;8.68;7.88;;;26.40;61.50;;;;;;5072258;28;20048;-74
2022/08/14 08:45:22;;;;;;;8.40;7.60;;;26.40;60.10;;;;;;5072996;28;20040;-74
2022/08/14 08:47:49;;;;;;;10.70;8.32;;;26.60;60.50;;;;;;5072749;28;20123;-76
2022/08/14 08:50:20;;;;;;;8.30;7.50;;;26.70;60.60;;;;;;5073080;28;20054;-77
2022/08/14 08:52:51;;;;;;;8.82;6.95;;;26.80;60.60;;;;;;5072804;28;20036;-76
2022/08/14 08:55:33;;;;;;;9.15;7.40;;;26.90;58.90;;;;;;5056313;28;20123;-76
2022/08/14 08:58:05;;;;;;;9.18;7.70;;;27.00;59.50;;;;;;5072806;28;20080;-77
2022/08/14 09:00:33;;;;;;;8.13;7.15;;;27.20;59.00;;;;;;5072854;28;20396;-75
2022/08/14 09:03:08;;;;;;;7.82;6.95;;;27.30;59.30;;;;;;5072489;28;20044;-76
2022/08/14 09:05:37;;;;;;;10.77;7.03;;;27.40;57.90;;;;;;5072912;28;20040;-78
2022/08/14 09:08:15;;;;;;;7.20;6.63;;;27.40;58.40;;;;;;5072459;28;20070;-79
2022/08/14 09:10:41;;;;;;;7.85;7.25;;;27.40;57.90;;;;;;5055771;28;20101;-79
2022/08/14 09:13:09;;;;;;;9.57;7.03;;;27.60;57.10;;;;;;5072798;28;20131;-78
2022/08/14 09:15:37;;;;;;;7.97;7.30;;;27.60;55.70;;;;;;5072330;28;20098;-77
2022/08/14 09:18:03;;;;;;;7.40;6.70;;;27.70;56.00;;;;;;5072332;28;20036;-78
2022/08/14 09:20:28;;;;;;;8.32;7.53;;;27.80;57.10;;;;;;5039025;28;20032;-76
2022/08/14 09:22:54;;;;;;;7.47;6.88;;;27.90;57.30;;;;;;5072563;28;20125;-78
2022/08/14 09:25:20;;;;;;;9.20;8.30;;;28.00;56.80;;;;;;5072329;28;20048;-76
2022/08/14 09:27:46;;;;;;;7.93;7.13;;;28.10;56.00;;;;;;5055335;28;20048;-77
2022/08/14 09:30:13;;;;;;;7.82;7.13;;;28.20;56.20;;;;;;5072152;28;20044;-77
2022/08/14 09:32:54;;;;;;;9.05;7.20;;;28.40;55.40;;;;;;5071971;28;20098;-78
2022/08/14 09:35:28;;;;;;;8.80;7.03;;;28.40;54.00;;;;;;5072094;28;20051;-78
2022/08/14 09:38:33;;;;;;;7.07;6.38;;;28.50;55.10;;;;;;5072197;28;20040;-77
2022/08/14 09:41:34;;;;;;;7.78;7.07;;;28.70;53.70;;;;;;5041323;28;20129;-78
2022/08/14 09:44:36;;;;;;;7.90;6.82;;;28.70;54.80;;;;;;5030964;28;20597;-78
2022/08/14 09:47:02;;;;;;;7.75;6.95;;;28.90;54.20;;;;;;5055046;28;20037;-78
2022/08/14 09:49:33;;;;;;;7.50;6.55;;;29.00;54.00;;;;;;5071902;28;20124;-77
2022/08/14 09:52:11;;;;;;;7.45;6.75;;;29.10;53.20;;;;;;5071992;28;20389;-78
2022/08/14 09:54:45;;;;;;;7.38;6.65;;;29.20;53.20;;;;;;5054960;28;20469;-78
2022/08/14 09:57:25;;;;;;;7.30;6.55;;;29.30;52.60;;;;;;5055294;28;20043;-80
2022/08/14 09:59:51;;;;;;;7.70;6.47;;;29.40;52.70;;;;;;5071968;28;20121;-78
2022/08/14 10:02:30;;;;;;;7.78;7.00;;;29.50;53.00;;;;;;5071714;28;20047;-78
2022/08/14 10:05:11;;;;;;;7.35;6.75;;;29.60;51.60;;;;;;5072233;28;20134;-78
2022/08/14 10:07:49;;;;;;;6.75;6.15;;;29.80;49.90;;;;;;5072108;28;20127;-78
2022/08/14 10:10:30;;;;;;;7.75;6.78;;;29.80;50.00;;;;;;5054832;28;20473;-77
2022/08/14 10:12:57;;;;;;;8.35;6.60;;;29.90;50.20;;;;;;5071560;28;20039;-77
2022/08/14 10:15:25;;;;;;;7.05;6.43;;;30.00;49.90;;;;;;5071632;28;20055;-76
2022/08/14 10:18:12;;;;;;;8.45;6.93;;;30.10;49.40;;;;;;5071576;28;20045;-77
2022/08/14 10:20:59;;;;;;;7.47;6.65;;;30.00;49.40;;;;;;5071492;28;20073;-78
2022/08/14 10:23:28;;;;;;;6.95;6.35;;;30.10;48.30;;;;;;5071868;28;20075;-78
2022/08/14 10:26:04;;;;;;;7.03;6.43;;;30.10;49.50;;;;;;5071634;28;20174;-77
2022/08/14 10:28:42;;;;;;;7.55;6.50;;;30.20;48.20;;;;;;5054652;28;20485;-77
2022/08/14 10:31:23;;;;;;;8.05;7.30;;;30.10;48.00;;;;;;5071498;28;20080;-77
2022/08/14 10:34:19;;;;;;;7.88;6.53;;;30.30;49.70;;;;;;5071623;28;20045;-79
2022/08/14 10:36:48;;;;;;;8.27;6.63;;;30.40;47.30;;;;;;5071596;28;20389;-78
2022/08/14 10:39:18;;;;;;;7.47;5.95;;;30.40;48.90;;;;;;5071354;28;20043;-76
2022/08/14 10:41:48;;;;;;;7.32;6.63;;;30.50;47.40;;;;;;5071377;28;20045;-76
2022/08/14 10:44:17;;;;;;;7.95;6.90;;;30.50;47.40;;;;;;5071385;28;20071;-78
2022/08/14 10:46:44;;;;;;;9.00;6.80;;;30.40;47.40;;;;;;5071282;28;20076;-77
2022/08/14 10:49:19;;;;;;;9.27;6.35;;;30.40;47.80;;;;;;5071197;28;20248;-77
2022/08/14 10:51:54;;;;;;;8.27;6.65;;;30.60;48.50;;;;;;5054673;28;20052;-77
2022/08/14 10:54:30;;;;;;;8.40;7.50;;;30.70;47.80;;;;;;5071198;28;20493;-76
2022/08/14 10:56:57;;;;;;;10.10;6.32;;;30.80;46.70;;;;;;5071321;28;20045;-77
2022/08/14 10:59:23;;;;;;;8.23;6.15;;;30.70;45.60;;;;;;5071292;28;20048;-77
2022/08/14 11:01:49;;;;;;;7.00;6.30;;;30.80;45.90;;;;;;5071130;28;20061;-78
2022/08/14 11:04:27;;;;;;;6.93;5.75;;;30.90;46.00;;;;;;5071378;28;20044;-77
2022/08/14 11:06:54;;;;;;;6.82;6.22;;;31.20;46.30;;;;;;5075309;28;20400;-77
2022/08/14 11:09:19;;;;;;;6.80;6.25;;;31.30;46.30;;;;;;5075508;28;20051;-79
2022/08/14 11:11:46;;;;;;;6.93;6.30;;;31.40;45.60;;;;;;5075851;28;20044;-78
2022/08/14 11:14:15;;;;;;;8.93;6.53;;;31.50;44.90;;;;;;5058839;28;20044;-78
2022/08/14 11:16:42;;;;;;;6.63;5.70;;;31.50;44.30;;;;;;5077515;28;20036;-77
2022/08/14 11:19:09;;;;;;;8.18;6.10;;;31.60;43.40;;;;;;5076027;28;20063;-77
2022/08/14 11:21:39;;;;;;;6.55;5.95;;;31.70;45.00;;;;;;5077491;28;20480;-77
2022/08/14 11:24:07;;;;;;;6.60;5.93;;;31.70;44.50;;;;;;5075738;28;20044;-76
2022/08/14 11:26:37;;;;;;;6.43;5.57;;;31.80;44.70;;;;;;5075575;28;20063;-78
2022/08/14 11:29:04;;;;;;;5.82;5.18;;;32.00;44.40;;;;;;5075917;28;20052;-77
2022/08/14 11:31:33;;;;;;;6.00;5.50;;;31.90;44.00;;;;;;5075087;28;20365;-77
2022/08/14 11:33:59;;;;;;;6.20;5.60;;;32.00;43.30;;;;;;5074962;28;20044;-78
2022/08/14 11:36:27;;;;;;;6.35;5.75;;;32.00;43.30;;;;;;5075061;28;20051;-78
2022/08/14 11:38:53;;;;;;;8.13;5.90;;;32.00;43.40;;;;;;5074002;28;20357;-80
2022/08/14 11:41:19;;;;;;;6.28;5.63;;;32.20;43.30;;;;;;5056773;28;20040;-78
2022/08/14 11:43:47;;;;;;;6.22;5.40;;;31.90;43.00;;;;;;5073358;28;20048;-79
2022/08/14 11:46:14;;;;;;;5.97;5.38;;;32.20;43.10;;;;;;5073805;28;20051;-78
2022/08/14 11:48:47;;;;;;;6.20;5.55;;;32.30;42.90;;;;;;5073819;28;20136;-77
2022/08/14 11:51:22;;;;;;;5.80;5.30;;;32.40;42.60;;;;;;5075356;28;20043;-79
2022/08/14 11:54:01;;;;;;;6.18;5.68;;;32.60;42.70;;;;;;5057351;28;20036;-78
2022/08/14 11:56:40;;;;;;;7.07;5.80;;;32.60;43.50;;;;;;5073990;28;20040;-77
2022/08/14 11:59:08;;;;;;;6.97;5.35;;;32.30;42.20;;;;;;5057217;28;20505;-80
2022/08/14 12:01:35;;;;;;;6.28;5.68;;;32.20;42.10;;;;;;5074146;28;20545;-78
2022/08/14 12:04:12;;;;;;;6.80;6.18;;;32.30;42.80;;;;;;5057427;28;20396;-80
2022/08/14 12:06:51;;;;;;;7.50;5.70;;;32.50;43.20;;;;;;5073724;28;20101;-78
2022/08/14 12:09:37;;;;;;;5.95;5.25;;;32.70;42.60;;;;;;5073634;28;20150;-78
2022/08/14 12:12:20;;;;;;;6.03;5.50;;;32.80;43.10;;;;;;5057021;28;20093;-78
2022/08/14 12:14:55;;;;;;;6.18;5.65;;;33.00;41.50;;;;;;5073706;28;20504;-77
2022/08/14 12:17:26;;;;;;;5.72;5.28;;;33.10;42.40;;;;;;5072564;28;20442;-78
2022/08/14 12:19:57;;;;;;;6.40;5.90;;;33.30;41.60;;;;;;5081802;28;20484;-77
2022/08/14 12:22:39;;;;;;;7.38;5.68;;;33.20;41.10;;;;;;5083633;28;20102;-76
2022/08/14 12:25:08;;;;;;;6.13;5.05;;;33.40;40.00;;;;;;5084144;28;20047;-77
2022/08/14 12:27:41;;;;;;;5.95;5.10;;;33.50;41.20;;;;;;5066694;28;20400;-76
2022/08/14 12:30:07;;;;;;;7.82;6.57;;;33.60;40.80;;;;;;5062275;28;20473;-77
2022/08/14 12:32:46;;;;;;;6.25;5.75;;;33.60;40.30;;;;;;5082262;28;20048;-77
2022/08/14 12:35:13;;;;;;;6.30;5.70;;;33.70;40.70;;;;;;5082072;28;20131;-78
2022/08/14 12:37:47;;;;;;;6.95;6.25;;;33.60;39.30;;;;;;5063815;28;20405;-78
2022/08/14 12:40:15;;;;;;;6.78;5.40;;;33.30;39.70;;;;;;5082659;28;20528;-76
2022/08/14 12:42:43;;;;;;;5.93;4.90;;;33.40;39.70;;;;;;5067800;28;20173;-77
2022/08/14 12:45:13;;;;;;;8.10;5.72;;;33.60;40.60;;;;;;5065232;28;20123;-76
2022/08/14 12:47:40;;;;;;;5.68;5.18;;;33.80;40.10;;;;;;5065539;28;20097;-77
2022/08/14 12:50:07;;;;;;;6.00;5.50;;;33.90;39.90;;;;;;5080762;28;20046;-77
2022/08/14 12:52:42;;;;;;;6.70;5.82;;;34.20;40.10;;;;;;5082352;28;20076;-77
2022/08/14 12:55:13;;;;;;;5.80;5.30;;;34.10;39.40;;;;;;5081156;28;20396;-76
2022/08/14 12:57:42;;;;;;;6.70;6.10;;;34.30;39.70;;;;;;5083342;28;20074;-77
2022/08/14 13:00:17;;;;;;;5.95;5.32;;;33.80;39.20;;;;;;5081487;28;20036;-79
2022/08/14 13:02:51;;;;;;;6.15;5.25;;;33.90;39.60;;;;;;5081623;28;20064;-80
2022/08/14 13:05:30;;;;;;;6.10;5.53;;;33.90;40.00;;;;;;5081993;28;20040;-77